sensor_id;sensor_type;location;lat;lon;timestamp;pressure;altitude;pressure_sealevel;temperature;humidity
26436;BME280;15351;52.408;16.826;2023-08-01T00:00:34;99683.38;;;21.94;63.32
26436;BME280;15351;52.408;16.826;2023-08-01T00:07:31;99673.55;;;21.93;63.41
26436;BME280;15351;52.408;16.826;2023-08-01T00:11:50;99663.45;;;21.95;63.41
26436;BME280;15351;52.408;16.826;2023-08-01T00:22:43;99641.95;;;21.90;63.30
26436;BME280;15351;52.408;16.826;2023-08-01T00:26:37;99633.00;;;21.90;63.19
26436;BME280;15351;52.408;16.826;2023-08-01T00:34:10;99621.48;;;21.91;62.85
26436;BME280;15351;52.408;16.826;2023-08-01T00:41:17;99610.83;;;21.88;63.02
26436;BME280;15351;52.408;16.826;2023-08-01T00:47:26;99597.27;;;21.89;63.12
26436;BME280;15351;52.408;16.826;2023-08-01T00:59:15;99571.87;;;21.86;62.90
26436;BME280;15351;52.408;16.826;2023-08-01T01:26:16;99525.70;;;21.77;62.75
26436;BME280;15351;52.408;16.826;2023-08-01T01:54:20;99477.64;;;21.77;62.49
26436;BME280;15351;52.408;16.826;2023-08-01T01:57:28;99464.40;;;21.78;62.49
26436;BME280;15351;52.408;16.826;2023-08-01T02:00:40;99464.02;;;21.76;62.44
26436;BME280;15351;52.408;16.826;2023-08-01T02:11:32;99458.86;;;21.73;62.79
26436;BME280;15351;52.408;16.826;2023-08-01T02:14:58;99444.58;;;21.70;62.83
26436;BME280;15351;52.408;16.826;2023-08-01T02:19:15;99452.98;;;21.72;63.25
26436;BME280;15351;52.408;16.826;2023-08-01T02:30:45;99439.48;;;21.70;64.15
26436;BME280;15351;52.408;16.826;2023-08-01T02:33:47;99426.27;;;21.64;64.35
26436;BME280;15351;52.408;16.826;2023-08-01T02:40:35;99424.52;;;21.62;64.39
26436;BME280;15351;52.408;16.826;2023-08-01T03:02:10;99416.57;;;21.55;65.33
26436;BME280;15351;52.408;16.826;2023-08-01T03:04:37;99414.81;;;21.53;65.40
26436;BME280;15351;52.408;16.826;2023-08-01T03:07:09;99411.63;;;21.53;65.45
26436;BME280;15351;52.408;16.826;2023-08-01T03:10:02;99404.33;;;21.52;65.38
26436;BME280;15351;52.408;16.826;2023-08-01T03:12:48;99398.89;;;21.50;65.37
26436;BME280;15351;52.408;16.826;2023-08-01T03:15:49;99398.89;;;21.48;65.42
26436;BME280;15351;52.408;16.826;2023-08-01T03:18:23;99403.48;;;21.46;65.67
26436;BME280;15351;52.408;16.826;2023-08-01T03:21:05;99395.75;;;21.45;65.99
26436;BME280;15351;52.408;16.826;2023-08-01T03:23:46;99392.78;;;21.46;66.30
26436;BME280;15351;52.408;16.826;2023-08-01T03:26:23;99394.85;;;21.44;66.36
26436;BME280;15351;52.408;16.826;2023-08-01T03:28:50;99393.52;;;21.40;66.42
26436;BME280;15351;52.408;16.826;2023-08-01T03:31:36;99394.77;;;21.38;66.62
26436;BME280;15351;52.408;16.826;2023-08-01T03:34:08;99393.99;;;21.35;66.69
26436;BME280;15351;52.408;16.826;2023-08-01T03:39:26;99386.26;;;21.35;67.33
26436;BME280;15351;52.408;16.826;2023-08-01T03:42:04;99386.26;;;21.33;67.43
26436;BME280;15351;52.408;16.826;2023-08-01T03:44:35;99384.70;;;21.27;67.58
26436;BME280;15351;52.408;16.826;2023-08-01T03:47:14;99388.02;;;21.27;67.94
26436;BME280;15351;52.408;16.826;2023-08-01T03:49:54;99389.09;;;21.28;68.38
26436;BME280;15351;52.408;16.826;2023-08-01T03:52:35;99387.67;;;21.29;68.66
26436;BME280;15351;52.408;16.826;2023-08-01T03:55:18;99388.83;;;21.30;68.93
26436;BME280;15351;52.408;16.826;2023-08-01T03:57:50;99394.20;;;21.29;69.27
26436;BME280;15351;52.408;16.826;2023-08-01T04:00:17;99385.11;;;21.26;69.67
26436;BME280;15351;52.408;16.826;2023-08-01T04:02:44;99388.34;;;21.22;69.97
26436;BME280;15351;52.408;16.826;2023-08-01T04:05:11;99392.52;;;21.17;70.44
26436;BME280;15351;52.408;16.826;2023-08-01T04:07:38;99389.34;;;21.10;71.02
26436;BME280;15351;52.408;16.826;2023-08-01T04:10:05;99385.98;;;21.10;71.26
26436;BME280;15351;52.408;16.826;2023-08-01T04:12:36;99382.70;;;21.09;71.58
26436;BME280;15351;52.408;16.826;2023-08-01T04:15:42;99380.98;;;21.08;72.03
26436;BME280;15351;52.408;16.826;2023-08-01T04:18:30;99373.73;;;21.04;72.19
26436;BME280;15351;52.408;16.826;2023-08-01T04:21:08;99374.28;;;21.04;72.40
26436;BME280;15351;52.408;16.826;2023-08-01T04:23:42;99371.76;;;21.02;72.57
26436;BME280;15351;52.408;16.826;2023-08-01T04:26:31;99368.41;;;21.03;72.83
26436;BME280;15351;52.408;16.826;2023-08-01T04:29:24;99369.84;;;21.02;73.02
26436;BME280;15351;52.408;16.826;2023-08-01T04:31:55;99368.41;;;21.02;73.19
26436;BME280;15351;52.408;16.826;2023-08-01T04:34:36;99365.23;;;21.04;73.41
26436;BME280;15351;52.408;16.826;2023-08-01T04:37:02;99355.97;;;21.04;73.47
26436;BME280;15351;52.408;16.826;2023-08-01T04:39:37;99349.54;;;21.05;73.68
26436;BME280;15351;52.408;16.826;2023-08-01T04:42:14;99348.57;;;21.06;73.68
26436;BME280;15351;52.408;16.826;2023-08-01T04:44:40;99347.73;;;21.07;73.89
26436;BME280;15351;52.408;16.826;2023-08-01T04:47:08;99345.22;;;21.08;73.98
26436;BME280;15351;52.408;16.826;2023-08-01T04:49:43;99341.92;;;21.08;74.21
26436;BME280;15351;52.408;16.826;2023-08-01T04:52:12;99336.60;;;21.08;74.28
26436;BME280;15351;52.408;16.826;2023-08-01T04:54:49;99333.80;;;21.07;74.42
26436;BME280;15351;52.408;16.826;2023-08-01T04:57:21;99330.89;;;21.08;74.66
26436;BME280;15351;52.408;16.826;2023-08-01T05:00:06;99320.41;;;21.07;74.59
26436;BME280;15351;52.408;16.826;2023-08-01T05:02:49;99311.42;;;21.05;74.64
26436;BME280;15351;52.408;16.826;2023-08-01T05:05:48;99308.89;;;21.04;74.85
26436;BME280;15351;52.408;16.826;2023-08-01T05:08:37;99310.42;;;21.03;75.00
26436;BME280;15351;52.408;16.826;2023-08-01T05:17:34;99299.11;;;21.02;75.85
26436;BME280;15351;52.408;16.826;2023-08-01T05:22:42;99302.08;;;21.02;76.11
26436;BME280;15351;52.408;16.826;2023-08-01T05:25:31;99298.45;;;21.02;76.23
26436;BME280;15351;52.408;16.826;2023-08-01T05:28:30;99291.44;;;21.06;76.39
26436;BME280;15351;52.408;16.826;2023-08-01T05:31:13;99291.94;;;21.08;76.24
26436;BME280;15351;52.408;16.826;2023-08-01T05:34:15;99290.08;;;21.09;76.38
26436;BME280;15351;52.408;16.826;2023-08-01T05:37:09;99282.89;;;21.09;76.44
26436;BME280;15351;52.408;16.826;2023-08-01T05:39:51;99281.20;;;21.12;76.49
26436;BME280;15351;52.408;16.826;2023-08-01T05:42:30;99276.70;;;21.11;76.21
26436;BME280;15351;52.408;16.826;2023-08-01T05:45:08;99275.33;;;21.09;76.24
26436;BME280;15351;52.408;16.826;2023-08-01T05:48:18;99271.59;;;21.10;76.24
26436;BME280;15351;52.408;16.826;2023-08-01T05:51:12;99271.53;;;21.08;76.24
26436;BME280;15351;52.408;16.826;2023-08-01T05:53:52;99275.04;;;21.05;76.31
26436;BME280;15351;52.408;16.826;2023-08-01T05:56:30;99276.20;;;21.06;76.43
26436;BME280;15351;52.408;16.826;2023-08-01T05:59:19;99271.86;;;21.05;76.63
26436;BME280;15351;52.408;16.826;2023-08-01T06:02:12;99276.20;;;21.05;76.59
26436;BME280;15351;52.408;16.826;2023-08-01T06:04:51;99268.23;;;21.02;76.58
26436;BME280;15351;52.408;16.826;2023-08-01T06:08:29;99273.11;;;21.01;76.69
26436;BME280;15351;52.408;16.826;2023-08-01T06:11:28;99267.69;;;21.02;76.82
26436;BME280;15351;52.408;16.826;2023-08-01T06:14:56;99263.08;;;21.06;77.12
26436;BME280;15351;52.408;16.826;2023-08-01T06:17:24;99259.48;;;21.12;77.19
26436;BME280;15351;52.408;16.826;2023-08-01T06:20:00;99251.27;;;21.17;77.18
26436;BME280;15351;52.408;16.826;2023-08-01T06:22:40;99254.08;;;21.19;77.18
26436;BME280;15351;52.408;16.826;2023-08-01T06:25:47;99246.69;;;21.19;77.03
26436;BME280;15351;52.408;16.826;2023-08-01T06:28:19;99250.64;;;21.22;77.23
26436;BME280;15351;52.408;16.826;2023-08-01T06:30:51;99249.17;;;21.22;77.07
26436;BME280;15351;52.408;16.826;2023-08-01T06:33:22;99244.91;;;21.20;77.24
26436;BME280;15351;52.408;16.826;2023-08-01T06:36:12;99245.36;;;21.20;77.11
26436;BME280;15351;52.408;16.826;2023-08-01T06:39:04;99244.15;;;21.20;77.04
26436;BME280;15351;52.408;16.826;2023-08-01T06:41:48;99243.52;;;21.25;77.02
26436;BME280;15351;52.408;16.826;2023-08-01T06:44:39;99237.53;;;21.25;76.95
26436;BME280;15351;52.408;16.826;2023-08-01T06:47:44;99231.67;;;21.26;77.03
26436;BME280;15351;52.408;16.826;2023-08-01T06:50:37;99225.75;;;21.29;76.98
26436;BME280;15351;52.408;16.826;2023-08-01T06:53:30;99221.20;;;21.30;76.98
26436;BME280;15351;52.408;16.826;2023-08-01T06:55:56;99218.41;;;21.32;77.12
26436;BME280;15351;52.408;16.826;2023-08-01T06:58:58;99220.04;;;21.37;77.04
26436;BME280;15351;52.408;16.826;2023-08-01T07:01:37;99218.23;;;21.39;76.83
26436;BME280;15351;52.408;16.826;2023-08-01T07:04:15;99219.61;;;21.42;76.88
26436;BME280;15351;52.408;16.826;2023-08-01T07:06:50;99213.42;;;21.45;77.07
26436;BME280;15351;52.408;16.826;2023-08-01T07:09:20;99213.80;;;21.55;77.33
26436;BME280;15351;52.408;16.826;2023-08-01T07:11:52;99213.43;;;21.63;77.31
26436;BME280;15351;52.408;16.826;2023-08-01T07:14:40;99213.15;;;21.64;77.18
26436;BME280;15351;52.408;16.826;2023-08-01T07:20:17;99206.95;;;21.67;76.96
26436;BME280;15351;52.408;16.826;2023-08-01T07:23:05;99205.67;;;21.69;76.78
26436;BME280;15351;52.408;16.826;2023-08-01T07:25:52;99200.40;;;21.70;76.59
26436;BME280;15351;52.408;16.826;2023-08-01T07:28:29;99196.34;;;21.70;76.38
26436;BME280;15351;52.408;16.826;2023-08-01T07:31:13;99189.79;;;21.71;76.33
26436;BME280;15351;52.408;16.826;2023-08-01T07:33:53;99186.61;;;21.72;76.37
26436;BME280;15351;52.408;16.826;2023-08-01T07:36:35;99183.59;;;21.72;76.30
26436;BME280;15351;52.408;16.826;2023-08-01T07:39:24;99186.67;;;21.75;76.48
26436;BME280;15351;52.408;16.826;2023-08-01T07:41:53;99187.38;;;21.81;76.50
26436;BME280;15351;52.408;16.826;2023-08-01T07:44:30;99180.89;;;21.84;76.32
26436;BME280;15351;52.408;16.826;2023-08-01T07:46:59;99181.86;;;21.89;76.21
26436;BME280;15351;52.408;16.826;2023-08-01T07:49:26;99180.23;;;21.92;76.07
26436;BME280;15351;52.408;16.826;2023-08-01T07:51:53;99181.51;;;21.94;76.07
26436;BME280;15351;52.408;16.826;2023-08-01T07:54:55;99180.28;;;21.94;75.75
26436;BME280;15351;52.408;16.826;2023-08-01T07:57:41;99178.19;;;21.88;75.39
26436;BME280;15351;52.408;16.826;2023-08-01T08:00:22;99174.23;;;21.84;75.37
26436;BME280;15351;52.408;16.826;2023-08-01T08:03:02;99172.05;;;21.83;75.29
26436;BME280;15351;52.408;16.826;2023-08-01T08:05:43;99172.92;;;21.84;75.23
26436;BME280;15351;52.408;16.826;2023-08-01T08:08:27;99169.13;;;21.85;75.14
26436;BME280;15351;52.408;16.826;2023-08-01T08:10:53;99160.56;;;21.83;75.12
26436;BME280;15351;52.408;16.826;2023-08-01T08:13:36;99153.66;;;21.79;75.14
26436;BME280;15351;52.408;16.826;2023-08-01T08:16:17;99158.83;;;21.78;74.99
26436;BME280;15351;52.408;16.826;2023-08-01T08:18:53;99155.58;;;21.78;75.00
26436;BME280;15351;52.408;16.826;2023-08-01T08:21:19;99148.33;;;21.79;75.06
26436;BME280;15351;52.408;16.826;2023-08-01T08:23:47;99146.08;;;21.79;75.26
26436;BME280;15351;52.408;16.826;2023-08-01T08:26:21;99140.59;;;21.78;75.19
26436;BME280;15351;52.408;16.826;2023-08-01T08:28:47;99139.64;;;21.80;75.33
26436;BME280;15351;52.408;16.826;2023-08-01T08:31:14;99138.88;;;21.80;75.24
26436;BME280;15351;52.408;16.826;2023-08-01T08:33:46;99134.44;;;21.80;75.06
26436;BME280;15351;52.408;16.826;2023-08-01T08:36:32;99127.63;;;21.78;75.22
26436;BME280;15351;52.408;16.826;2023-08-01T08:39:16;99124.39;;;21.80;75.43
26436;BME280;15351;52.408;16.826;2023-08-01T08:41:50;99123.10;;;21.82;75.57
26436;BME280;15351;52.408;16.826;2023-08-01T08:44:20;99122.31;;;21.87;75.62
26436;BME280;15351;52.408;16.826;2023-08-01T08:46:59;99121.48;;;21.89;75.68
26436;BME280;15351;52.408;16.826;2023-08-01T08:52:55;99116.77;;;21.85;75.93
26436;BME280;15351;52.408;16.826;2023-08-01T08:55:27;99115.90;;;21.84;76.02
26436;BME280;15351;52.408;16.826;2023-08-01T08:58:09;99116.52;;;21.82;76.01
26436;BME280;15351;52.408;16.826;2023-08-01T09:00:41;99113.56;;;21.79;76.10
26436;BME280;15351;52.408;16.826;2023-08-01T09:03:42;99111.75;;;21.79;76.30
26436;BME280;15351;52.408;16.826;2023-08-01T09:06:49;99110.21;;;21.79;76.27
26436;BME280;15351;52.408;16.826;2023-08-01T09:09:18;99103.30;;;21.79;76.30
26436;BME280;15351;52.408;16.826;2023-08-01T09:18:12;99088.75;;;21.86;76.00
26436;BME280;15351;52.408;16.826;2023-08-01T09:20:49;99084.92;;;21.82;75.81
26436;BME280;15351;52.408;16.826;2023-08-01T09:23:31;99085.72;;;21.78;75.93
26436;BME280;15351;52.408;16.826;2023-08-01T09:25:59;99085.39;;;21.77;76.34
26436;BME280;15351;52.408;16.826;2023-08-01T09:28:43;99080.16;;;21.78;76.44
26436;BME280;15351;52.408;16.826;2023-08-01T09:31:29;99081.00;;;21.76;76.61
26436;BME280;15351;52.408;16.826;2023-08-01T09:34:30;99087.67;;;21.73;76.82
26436;BME280;15351;52.408;16.826;2023-08-01T09:37:11;99086.00;;;21.69;77.16
26436;BME280;15351;52.408;16.826;2023-08-01T09:39:54;99086.73;;;21.65;77.73
26436;BME280;15351;52.408;16.826;2023-08-01T09:42:22;99082.19;;;21.63;78.15
26436;BME280;15351;52.408;16.826;2023-08-01T09:44:49;99078.62;;;21.62;78.42
26436;BME280;15351;52.408;16.826;2023-08-01T09:47:36;99076.75;;;21.58;78.66
26436;BME280;15351;52.408;16.826;2023-08-01T09:50:24;99076.64;;;21.54;78.92
26436;BME280;15351;52.408;16.826;2023-08-01T09:52:51;99067.52;;;21.54;79.32
26436;BME280;15351;52.408;16.826;2023-08-01T09:55:36;99069.72;;;21.60;79.47
26436;BME280;15351;52.408;16.826;2023-08-01T09:58:17;99066.92;;;21.60;79.56
26436;BME280;15351;52.408;16.826;2023-08-01T10:00:47;99065.38;;;21.55;79.57
26436;BME280;15351;52.408;16.826;2023-08-01T10:03:13;99063.91;;;21.53;79.68
26436;BME280;15351;52.408;16.826;2023-08-01T10:06:02;99059.88;;;21.47;79.77
26436;BME280;15351;52.408;16.826;2023-08-01T10:08:30;99055.64;;;21.40;80.11
26436;BME280;15351;52.408;16.826;2023-08-01T10:11:07;99054.44;;;21.39;80.38
26436;BME280;15351;52.408;16.826;2023-08-01T10:13:49;99051.73;;;21.41;80.54
26436;BME280;15351;52.408;16.826;2023-08-01T10:16:19;99049.28;;;21.44;80.66
26436;BME280;15351;52.408;16.826;2023-08-01T10:18:58;99042.25;;;21.44;80.68
26436;BME280;15351;52.408;16.826;2023-08-01T10:21:47;99038.41;;;21.45;80.73
26436;BME280;15351;52.408;16.826;2023-08-01T10:24:28;99034.30;;;21.46;81.04
26436;BME280;15351;52.408;16.826;2023-08-01T10:26:57;99029.72;;;21.48;81.05
26436;BME280;15351;52.408;16.826;2023-08-01T10:30:25;99027.25;;;21.50;81.16
26436;BME280;15351;52.408;16.826;2023-08-01T10:33:04;99021.02;;;21.55;81.31
26436;BME280;15351;52.408;16.826;2023-08-01T10:35:41;99017.61;;;21.57;81.30
26436;BME280;15351;52.408;16.826;2023-08-01T10:38:15;99011.84;;;21.58;81.27
26436;BME280;15351;52.408;16.826;2023-08-01T10:40:48;99012.71;;;21.58;81.36
26436;BME280;15351;52.408;16.826;2023-08-01T10:43:22;99005.20;;;21.59;81.49
26436;BME280;15351;52.408;16.826;2023-08-01T10:46:13;99001.61;;;21.67;81.81
26436;BME280;15351;52.408;16.826;2023-08-01T10:49:11;98997.02;;;21.73;81.72
26436;BME280;15351;52.408;16.826;2023-08-01T10:51:55;98998.48;;;21.81;82.00
26436;BME280;15351;52.408;16.826;2023-08-01T10:54:55;98995.38;;;21.86;81.99
26436;BME280;15351;52.408;16.826;2023-08-01T10:57:49;98991.95;;;21.90;81.95
26436;BME280;15351;52.408;16.826;2023-08-01T11:00:38;98993.42;;;21.97;82.37
26436;BME280;15351;52.408;16.826;2023-08-01T11:03:37;98987.56;;;22.04;82.19
26436;BME280;15351;52.408;16.826;2023-08-01T11:06:19;98985.48;;;22.05;82.27
26436;BME280;15351;52.408;16.826;2023-08-01T11:09:17;98980.30;;;22.10;82.17
26436;BME280;15351;52.408;16.826;2023-08-01T11:11:58;98975.04;;;22.13;82.26
26436;BME280;15351;52.408;16.826;2023-08-01T11:14:53;98970.02;;;22.16;82.55
26436;BME280;15351;52.408;16.826;2023-08-01T11:17:58;98960.77;;;22.19;82.63
26436;BME280;15351;52.408;16.826;2023-08-01T11:20:38;98954.20;;;22.26;82.90
26436;BME280;15351;52.408;16.826;2023-08-01T11:23:30;98951.54;;;22.28;82.72
26436;BME280;15351;52.408;16.826;2023-08-01T11:29:29;98949.08;;;22.28;82.65
26436;BME280;15351;52.408;16.826;2023-08-01T11:32:07;98947.77;;;22.27;82.68
26436;BME280;15351;52.408;16.826;2023-08-01T11:34:43;98960.41;;;22.26;82.41
26436;BME280;15351;52.408;16.826;2023-08-01T11:37:18;98975.77;;;22.23;82.18
26436;BME280;15351;52.408;16.826;2023-08-01T11:39:57;98986.07;;;22.16;81.39
26436;BME280;15351;52.408;16.826;2023-08-01T11:42:30;98982.16;;;21.95;79.84
26436;BME280;15351;52.408;16.826;2023-08-01T11:45:21;98990.26;;;21.78;79.66
26436;BME280;15351;52.408;16.826;2023-08-01T11:47:52;98981.33;;;21.69;79.59
26436;BME280;15351;52.408;16.826;2023-08-01T11:50:26;98983.34;;;21.64;79.75
26436;BME280;15351;52.408;16.826;2023-08-01T11:52:53;98985.86;;;21.65;80.05
26436;BME280;15351;52.408;16.826;2023-08-01T11:55:40;98983.16;;;21.66;80.16
26436;BME280;15351;52.408;16.826;2023-08-01T11:58:10;98977.73;;;21.63;80.26
26436;BME280;15351;52.408;16.826;2023-08-01T12:01:04;98976.39;;;21.61;80.30
26436;BME280;15351;52.408;16.826;2023-08-01T12:04:06;98980.48;;;21.63;80.61
26436;BME280;15351;52.408;16.826;2023-08-01T12:07:20;98979.04;;;21.66;80.79
26436;BME280;15351;52.408;16.826;2023-08-01T12:10:00;98974.64;;;21.67;80.79
26436;BME280;15351;52.408;16.826;2023-08-01T12:12:50;98963.89;;;21.64;80.56
26436;BME280;15351;52.408;16.826;2023-08-01T12:15:25;98963.79;;;21.64;80.82
26436;BME280;15351;52.408;16.826;2023-08-01T12:17:54;98964.38;;;21.66;81.18
26436;BME280;15351;52.408;16.826;2023-08-01T12:20:40;98966.32;;;21.71;81.59
26436;BME280;15351;52.408;16.826;2023-08-01T12:23:09;98963.58;;;21.76;81.83
26436;BME280;15351;52.408;16.826;2023-08-01T12:25:40;98961.40;;;21.81;82.26
26436;BME280;15351;52.408;16.826;2023-08-01T12:28:19;98960.77;;;21.84;82.57
26436;BME280;15351;52.408;16.826;2023-08-01T12:30:48;98964.38;;;21.89;82.85
26436;BME280;15351;52.408;16.826;2023-08-01T12:33:20;98967.38;;;21.99;83.41
26436;BME280;15351;52.408;16.826;2023-08-01T12:35:52;98973.18;;;22.13;84.04
26436;BME280;15351;52.408;16.826;2023-08-01T12:38:19;98976.47;;;22.24;84.72
26436;BME280;15351;52.408;16.826;2023-08-01T12:40:45;98976.61;;;22.34;85.11
26436;BME280;15351;52.408;16.826;2023-08-01T12:43:17;98975.60;;;22.37;84.67
26436;BME280;15351;52.408;16.826;2023-08-01T12:46:11;98965.31;;;22.40;84.71
26436;BME280;15351;52.408;16.826;2023-08-01T12:48:44;98955.44;;;22.44;84.25
26436;BME280;15351;52.408;16.826;2023-08-01T12:51:34;98954.48;;;22.46;83.87
26436;BME280;15351;52.408;16.826;2023-08-01T12:54:23;98951.74;;;22.50;83.78
26436;BME280;15351;52.408;16.826;2023-08-01T12:57:18;98953.85;;;22.58;83.62
26436;BME280;15351;52.408;16.826;2023-08-01T13:03:10;98946.52;;;22.76;83.47
26436;BME280;15351;52.408;16.826;2023-08-01T13:05:41;98956.50;;;22.85;83.25
26436;BME280;15351;52.408;16.826;2023-08-01T13:08:09;98981.09;;;22.86;82.53
26436;BME280;15351;52.408;16.826;2023-08-01T13:10:40;98993.42;;;22.83;81.61
26436;BME280;15351;52.408;16.826;2023-08-01T13:13:24;98997.92;;;22.87;81.89
26436;BME280;15351;52.408;16.826;2023-08-01T13:15:55;98999.36;;;22.91;81.64
26436;BME280;15351;52.408;16.826;2023-08-01T13:18:42;99001.61;;;22.87;81.30
26436;BME280;15351;52.408;16.826;2023-08-01T13:21:30;99010.11;;;22.89;81.53
26436;BME280;15351;52.408;16.826;2023-08-01T13:23:58;99014.57;;;22.95;81.72
26436;BME280;15351;52.408;16.826;2023-08-01T13:26:25;99010.80;;;22.97;81.28
26436;BME280;15351;52.408;16.826;2023-08-01T13:28:52;99002.22;;;22.97;80.78
26436;BME280;15351;52.408;16.826;2023-08-01T13:31:19;98981.23;;;23.00;79.97
26436;BME280;15351;52.408;16.826;2023-08-01T13:33:57;98985.60;;;23.05;79.97
26436;BME280;15351;52.408;16.826;2023-08-01T13:36:32;98980.59;;;23.08;80.32
26436;BME280;15351;52.408;16.826;2023-08-01T13:39:22;98970.92;;;23.20;80.80
26436;BME280;15351;52.408;16.826;2023-08-01T13:41:53;98959.31;;;23.28;80.76
26436;BME280;15351;52.408;16.826;2023-08-01T13:44:31;98963.03;;;23.31;80.22
26436;BME280;15351;52.408;16.826;2023-08-01T13:46:57;98963.15;;;23.37;80.34
26436;BME280;15351;52.408;16.826;2023-08-01T13:52:47;98971.98;;;23.41;78.25
26436;BME280;15351;52.408;16.826;2023-08-01T13:55:15;98977.58;;;23.42;78.14
26436;BME280;15351;52.408;16.826;2023-08-01T13:57:43;98974.38;;;23.43;78.03
26436;BME280;15351;52.408;16.826;2023-08-01T14:00:25;98977.34;;;23.43;77.70
26436;BME280;15351;52.408;16.826;2023-08-01T14:02:55;98982.16;;;23.45;77.68
26436;BME280;15351;52.408;16.826;2023-08-01T14:05:29;98984.16;;;23.44;77.61
26436;BME280;15351;52.408;16.826;2023-08-01T14:08:16;98982.66;;;23.42;77.17
26436;BME280;15351;52.408;16.826;2023-08-01T14:11:01;98986.63;;;23.34;76.69
26436;BME280;15351;52.408;16.826;2023-08-01T14:13:36;98990.58;;;23.27;76.63
26436;BME280;15351;52.408;16.826;2023-08-01T14:16:54;98989.45;;;23.22;76.47
26436;BME280;15351;52.408;16.826;2023-08-01T14:20:15;98986.56;;;23.13;76.19
26436;BME280;15351;52.408;16.826;2023-08-01T14:27:37;98980.90;;;23.01;76.39
26436;BME280;15351;52.408;16.826;2023-08-01T14:35:03;98996.00;;;23.04;76.82
26436;BME280;15351;52.408;16.826;2023-08-01T14:41:52;98997.17;;;23.08;77.15
26436;BME280;15351;52.408;16.826;2023-08-01T14:44:32;98990.45;;;23.14;77.55
26436;BME280;15351;52.408;16.826;2023-08-01T14:47:28;98984.13;;;23.20;77.63
26436;BME280;15351;52.408;16.826;2023-08-01T14:51:04;98976.20;;;23.29;77.84
26436;BME280;15351;52.408;16.826;2023-08-01T15:09:43;99022.25;;;23.57;74.11
26436;BME280;15351;52.408;16.826;2023-08-01T15:13:18;99023.29;;;23.53;72.80
26436;BME280;15351;52.408;16.826;2023-08-01T15:19:44;98994.23;;;23.44;72.04
26436;BME280;15351;52.408;16.826;2023-08-01T15:30:43;98993.08;;;23.34;70.35
26436;BME280;15351;52.408;16.826;2023-08-01T15:34:07;99003.95;;;23.29;70.73
26436;BME280;15351;52.408;16.826;2023-08-01T15:37:16;99014.14;;;23.29;70.96
26436;BME280;15351;52.408;16.826;2023-08-01T15:40:10;99033.94;;;23.26;70.98
26436;BME280;15351;52.408;16.826;2023-08-01T15:43:32;99045.88;;;23.22;70.78
26436;BME280;15351;52.408;16.826;2023-08-01T15:46:12;99047.60;;;23.20;70.95
26436;BME280;15351;52.408;16.826;2023-08-01T15:48:59;99043.39;;;23.18;71.22
26436;BME280;15351;52.408;16.826;2023-08-01T15:51:54;99041.56;;;23.19;71.75
26436;BME280;15351;52.408;16.826;2023-08-01T15:54:28;99036.05;;;23.20;71.94
26436;BME280;15351;52.408;16.826;2023-08-01T15:57:18;99036.30;;;23.21;72.13
26436;BME280;15351;52.408;16.826;2023-08-01T16:00:09;99033.21;;;23.22;72.26
26436;BME280;15351;52.408;16.826;2023-08-01T16:02:55;99037.52;;;23.21;72.40
26436;BME280;15351;52.408;16.826;2023-08-01T16:05:22;99046.61;;;23.20;72.77
26436;BME280;15351;52.408;16.826;2023-08-01T16:08:05;99048.18;;;23.18;72.95
26436;BME280;15351;52.408;16.826;2023-08-01T16:10:32;99050.22;;;23.17;73.10
26436;BME280;15351;52.408;16.826;2023-08-01T16:13:01;99058.75;;;23.17;72.75
26436;BME280;15351;52.408;16.826;2023-08-01T16:15:33;99056.62;;;23.16;72.83
26436;BME280;15351;52.408;16.826;2023-08-01T16:21:19;99052.77;;;23.08;73.20
26436;BME280;15351;52.408;16.826;2023-08-01T16:24:12;99048.52;;;23.04;73.31
26436;BME280;15351;52.408;16.826;2023-08-01T16:27:08;99053.33;;;22.99;73.27
26436;BME280;15351;52.408;16.826;2023-08-01T16:29:57;99054.65;;;22.98;73.27
26436;BME280;15351;52.408;16.826;2023-08-01T16:32:29;99048.63;;;22.95;73.03
26436;BME280;15351;52.408;16.826;2023-08-01T16:35:25;99053.50;;;22.92;73.20
26436;BME280;15351;52.408;16.826;2023-08-01T16:38:05;99052.05;;;22.88;73.41
26436;BME280;15351;52.408;16.826;2023-08-01T16:40:54;99055.27;;;22.87;73.20
26436;BME280;15351;52.408;16.826;2023-08-01T16:43:59;99059.29;;;22.84;72.95
26436;BME280;15351;52.408;16.826;2023-08-01T16:46:33;99061.55;;;22.81;72.67
26436;BME280;15351;52.408;16.826;2023-08-01T16:49:01;99077.06;;;22.76;72.36
26436;BME280;15351;52.408;16.826;2023-08-01T16:51:39;99077.41;;;22.73;72.33
26436;BME280;15351;52.408;16.826;2023-08-01T16:54:48;99078.92;;;22.70;72.53
26436;BME280;15351;52.408;16.826;2023-08-01T16:57:45;99082.60;;;22.67;72.46
26436;BME280;15351;52.408;16.826;2023-08-01T17:00:42;99091.08;;;22.63;72.28
26436;BME280;15351;52.408;16.826;2023-08-01T17:03:33;99092.33;;;22.59;71.98
26436;BME280;15351;52.408;16.826;2023-08-01T17:06:13;99089.54;;;22.57;72.05
26436;BME280;15351;52.408;16.826;2023-08-01T17:08:46;99089.32;;;22.56;72.41
26436;BME280;15351;52.408;16.826;2023-08-01T17:11:56;99087.02;;;22.53;72.59
26436;BME280;15351;52.408;16.826;2023-08-01T17:14:35;99089.88;;;22.51;72.59
26436;BME280;15351;52.408;16.826;2023-08-01T17:17:16;99094.77;;;22.50;72.39
26436;BME280;15351;52.408;16.826;2023-08-01T17:19:42;99090.83;;;22.49;72.53
26436;BME280;15351;52.408;16.826;2023-08-01T17:22:18;99090.92;;;22.44;72.64
26436;BME280;15351;52.408;16.826;2023-08-01T17:24:56;99092.97;;;22.41;72.91
26436;BME280;15351;52.408;16.826;2023-08-01T17:27:45;99097.41;;;22.43;73.14
26436;BME280;15351;52.408;16.826;2023-08-01T17:30:30;99103.63;;;22.44;73.38
26436;BME280;15351;52.408;16.826;2023-08-01T17:33:08;99107.52;;;22.46;73.25
26436;BME280;15351;52.408;16.826;2023-08-01T17:35:46;99108.66;;;22.46;73.22